Time;durP1;ratioP1;P1;durP2;ratioP2;P2;SDS_P1;SDS_P2;PMS_P1;PMS_P2;Temp;Humidity;BMP_temperature;BMP_pressure;BME280_temperature;BME280_humidity;BME280_pressure;Samples;Min_cycle;Max_cycle;Signal;HPM_P1;HPM_P2
2021/04/25 00:02:00;;;;;;;16.45;7.00;;;153.90;2252.80;;;;;;5030470;28;20040;-71
2021/04/25 00:04:26;;;;;;;19.02;8.20;;;153.80;2252.80;;;;;;5034935;28;20076;-72
2021/04/25 00:06:52;;;;;;;28.40;11.38;;;153.80;2252.80;;;;;;5034440;28;20615;-71
2021/04/25 00:09:20;;;;;;;38.85;14.00;;;153.70;2252.80;;;;;;5035168;28;20040;-71
2021/04/25 00:11:46;;;;;;;29.48;11.05;;;153.70;2252.80;;;;;;5034459;28;20462;-71
2021/04/25 00:14:12;;;;;;;21.52;9.93;;;153.70;2252.80;;;;;;5034673;28;20037;-70
2021/04/25 00:16:38;;;;;;;34.67;12.20;;;153.60;2252.80;;;;;;5036303;28;20033;-71
2021/04/25 00:19:05;;;;;;;46.85;19.80;;;153.60;2252.80;;;;;;5038981;28;20303;-73
2021/04/25 00:21:31;;;;;;;37.42;16.92;;;153.60;2252.80;;;;;;5039320;28;20496;-71
2021/04/25 00:23:59;;;;;;;45.05;21.00;;;128.90;2252.80;;;;;;5038868;28;20099;-70
2021/04/25 00:26:25;;;;;;;52.72;21.75;;;128.90;2252.80;;;;;;5038515;28;20395;-72
2021/04/25 00:28:51;;;;;;;59.45;25.70;;;128.80;2252.80;;;;;;5038020;28;20027;-71
2021/04/25 00:31:17;;;;;;;68.07;27.15;;;128.80;2252.80;;;;;;5038773;28;20044;-70
2021/04/25 00:33:43;;;;;;;65.05;29.85;;;128.70;2252.80;;;;;;5038366;28;20044;-71
2021/04/25 00:36:09;;;;;;;37.83;18.15;;;128.70;2252.80;;;;;;5038516;28;20415;-70
2021/04/25 00:38:35;;;;;;;85.90;37.13;;;128.60;2252.80;;;;;;5038693;28;20063;-70
2021/04/25 00:41:02;;;;;;;84.57;35.70;;;128.60;2252.80;;;;;;5038612;28;20581;-72
2021/04/25 00:43:27;;;;;;;75.97;32.47;;;128.60;2252.80;;;;;;5038336;28;20032;-71
2021/04/25 00:45:53;;;;;;;42.20;19.55;;;128.50;2252.80;;;;;;5038500;28;20037;-71
2021/04/25 00:48:21;;;;;;;18.42;8.82;;;128.50;2252.80;;;;;;5038290;28;20407;-70
2021/04/25 00:50:46;;;;;;;13.18;6.10;;;128.40;2252.80;;;;;;5037837;28;20068;-70
2021/04/25 00:53:12;;;;;;;9.98;5.10;;;128.30;2252.80;;;;;;5031883;28;20030;-71
2021/04/25 00:55:39;;;;;;;12.07;6.20;;;128.20;2252.80;;;;;;5040284;28;20299;-71
2021/04/25 00:58:05;;;;;;;17.60;5.93;;;128.20;2252.80;;;;;;5040442;28;20403;-71
2021/04/25 01:00:32;;;;;;;25.63;8.98;;;128.20;2252.80;;;;;;5040433;28;20108;-70
2021/04/25 01:02:58;;;;;;;21.35;12.38;;;128.10;2252.80;;;;;;5039838;28;20040;-70
2021/04/25 01:05:25;;;;;;;33.03;17.13;;;128.10;2252.80;;;;;;5040322;28;20418;-70
2021/04/25 01:07:51;;;;;;;19.98;10.75;;;128.10;2252.80;;;;;;5039587;28;20048;-70
2021/04/25 01:10:18;;;;;;;25.30;15.65;;;128.10;2252.80;;;;;;5039895;28;20330;-71
2021/04/25 01:12:44;;;;;;;27.23;16.70;;;128.10;2252.80;;;;;;5037287;28;20021;-71
2021/04/25 01:15:13;;;;;;;17.15;10.23;;;128.00;2252.80;;;;;;5039365;28;20045;-72
2021/04/25 01:17:44;;;;;;;18.05;10.95;;;128.00;2252.80;;;;;;5039252;28;20030;-69
2021/04/25 01:20:13;;;;;;;24.08;13.90;;;128.00;2252.80;;;;;;5039177;28;20409;-70
2021/04/25 01:22:39;;;;;;;19.90;13.35;;;128.00;2252.80;;;;;;5039015;28;20021;-70
2021/04/25 01:25:06;;;;;;;12.75;7.70;;;128.00;2252.80;;;;;;5038951;28;20044;-71
2021/04/25 01:27:33;;;;;;;13.85;7.85;;;103.30;2227.20;;;;;;5038667;28;20033;-70
2021/04/25 01:29:59;;;;;;;15.02;9.38;;;103.30;2227.20;;;;;;5038296;28;20024;-71
2021/04/25 01:32:25;;;;;;;18.35;11.50;;;103.30;2227.20;;;;;;5039405;28;20319;-70
2021/04/25 01:34:51;;;;;;;12.85;6.38;;;103.30;2227.20;;;;;;5039029;28;20021;-72
2021/04/25 01:37:17;;;;;;;11.27;5.97;;;103.20;2227.20;;;;;;5038902;28;20036;-72
2021/04/25 01:39:42;;;;;;;18.75;7.80;;;103.30;2227.20;;;;;;5039077;28;20033;-71
2021/04/25 01:42:08;;;;;;;13.57;5.75;;;103.30;2227.20;;;;;;5039747;28;20033;-70
2021/04/25 01:44:34;;;;;;;11.55;5.18;;;103.30;2227.20;;;;;;5039410;28;20021;-71
2021/04/25 01:47:00;;;;;;;10.85;5.70;;;103.20;2227.20;;;;;;5039575;28;20164;-70
2021/04/25 01:49:26;;;;;;;9.90;5.13;;;103.20;2227.20;;;;;;5039289;28;20426;-73
2021/04/25 01:51:52;;;;;;;9.88;4.80;;;103.20;2227.20;;;;;;5039141;28;20087;-73
2021/04/25 01:54:17;;;;;;;12.57;5.45;;;103.10;2227.20;;;;;;5039723;28;20025;-73
2021/04/25 01:56:43;;;;;;;12.02;5.97;;;103.10;2227.20;;;;;;5039390;28;20063;-71
2021/04/25 01:59:09;;;;;;;9.45;5.68;;;103.10;2227.20;;;;;;5039371;28;20433;-72
2021/04/25 02:01:35;;;;;;;10.38;4.93;;;103.10;2227.20;;;;;;5039357;28;20029;-74
2021/04/25 02:04:01;;;;;;;11.82;5.35;;;103.00;2227.20;;;;;;5039308;28;20025;-73
2021/04/25 02:06:27;;;;;;;10.85;5.30;;;103.00;2227.20;;;;;;5039535;28;20030;-72
2021/04/25 02:08:53;;;;;;;17.70;5.35;;;102.90;2227.20;;;;;;5039453;28;20053;-71
2021/04/25 02:11:19;;;;;;;12.63;5.78;;;102.90;2227.20;;;;;;5039189;28;20082;-72
2021/04/25 02:13:45;;;;;;;10.32;5.55;;;102.80;2227.20;;;;;;5038840;28;20025;-72
2021/04/25 02:16:13;;;;;;;14.55;5.43;;;102.80;2227.20;;;;;;5039016;28;20159;-72
2021/04/25 02:18:38;;;;;;;9.73;4.93;;;102.80;2227.20;;;;;;5039110;28;20099;-72
2021/04/25 02:21:04;;;;;;;11.50;5.75;;;102.80;2227.20;;;;;;5038991;28;20414;-72
2021/04/25 02:23:30;;;;;;;9.95;5.45;;;102.80;2227.20;;;;;;5038960;28;20028;-73
2021/04/25 02:25:56;;;;;;;11.77;5.20;;;102.70;2227.20;;;;;;5038757;28;20029;-72
2021/04/25 02:28:22;;;;;;;10.05;5.28;;;102.60;2227.20;;;;;;5038537;28;20460;-74
2021/04/25 02:30:48;;;;;;;13.90;5.22;;;102.60;2227.20;;;;;;5039053;28;20036;-72
2021/04/25 02:33:14;;;;;;;7.65;4.15;;;102.60;2227.20;;;;;;5038480;28;20029;-71
2021/04/25 02:35:40;;;;;;;9.02;5.15;;;102.50;2227.20;;;;;;5039265;28;20428;-71
2021/04/25 02:38:06;;;;;;;11.35;5.05;;;102.50;2227.20;;;;;;5038583;28;20116;-72
2021/04/25 02:40:34;;;;;;;10.95;4.88;;;102.50;2227.20;;;;;;5038202;28;20044;-72
2021/04/25 02:43:01;;;;;;;9.02;5.57;;;102.50;2227.20;;;;;;5038864;28;20026;-72
2021/04/25 02:45:28;;;;;;;10.95;4.93;;;102.50;2227.20;;;;;;5038235;28;20037;-69
2021/04/25 02:47:59;;;;;;;11.27;4.88;;;102.50;2227.20;;;;;;5038668;28;20076;-72
2021/04/25 02:50:31;;;;;;;12.43;4.40;;;102.50;2227.20;;;;;;5038129;28;20028;-72
2021/04/25 02:52:58;;;;;;;9.23;4.90;;;102.40;2227.20;;;;;;5038190;28;20170;-71
2021/04/25 02:55:24;;;;;;;9.68;4.75;;;102.50;2227.20;;;;;;5038587;28;20459;-74
2021/04/25 02:57:50;;;;;;;11.75;4.82;;;102.50;2227.20;;;;;;5038232;28;20033;-72
2021/04/25 03:00:20;;;;;;;8.38;4.97;;;102.50;2227.20;;;;;;5037979;28;20030;-73
2021/04/25 03:02:45;;;;;;;8.60;4.70;;;102.50;2227.20;;;;;;5038470;28;20100;-73
2021/04/25 03:05:12;;;;;;;12.85;4.68;;;102.40;2227.20;;;;;;5038344;28;20449;-72
2021/04/25 03:07:38;;;;;;;9.63;4.05;;;102.40;2227.20;;;;;;5038109;28;20036;-71
2021/04/25 03:10:06;;;;;;;8.43;4.25;;;102.40;2227.20;;;;;;5038318;28;20022;-74
2021/04/25 03:12:32;;;;;;;9.90;4.88;;;102.40;2227.20;;;;;;5038260;28;20034;-73
2021/04/25 03:14:58;;;;;;;10.02;4.90;;;102.40;2227.20;;;;;;5037581;28;20429;-71
2021/04/25 03:17:24;;;;;;;13.90;5.28;;;102.40;2227.20;;;;;;5037550;28;20029;-72
2021/04/25 03:19:50;;;;;;;11.40;4.80;;;102.40;2227.20;;;;;;5038183;28;20056;-72
2021/04/25 03:22:15;;;;;;;11.90;4.70;;;102.40;2227.20;;;;;;5037319;28;20426;-72
2021/04/25 03:24:41;;;;;;;11.63;5.05;;;102.40;2227.20;;;;;;5037751;28;20021;-71
2021/04/25 03:27:07;;;;;;;10.00;5.35;;;102.40;2227.20;;;;;;5037758;28;20025;-72
2021/04/25 03:29:33;;;;;;;11.07;5.05;;;102.40;2227.20;;;;;;5037425;28;20021;-73
2021/04/25 03:31:59;;;;;;;10.15;4.85;;;102.40;2227.20;;;;;;5036955;28;20053;-72
2021/04/25 03:34:24;;;;;;;9.52;5.45;;;102.40;2227.20;;;;;;5037927;28;20033;-71
2021/04/25 03:36:50;;;;;;;25.65;11.10;;;102.40;2227.20;;;;;;5037558;28;20025;-73
2021/04/25 03:39:16;;;;;;;33.55;15.60;;;102.40;2227.20;;;;;;5037887;28;20033;-72
2021/04/25 03:41:42;;;;;;;36.15;14.57;;;102.40;2227.20;;;;;;5037431;28;20055;-72
2021/04/25 03:44:09;;;;;;;87.03;26.92;;;77.70;2227.20;;;;;;5037403;28;20407;-71
2021/04/25 03:46:35;;;;;;;52.72;20.42;;;102.40;2227.20;;;;;;5037670;28;20046;-72
2021/04/25 03:49:01;;;;;;;51.28;24.17;;;102.40;2227.20;;;;;;5037412;28;20021;-72
2021/04/25 03:51:26;;;;;;;13.52;6.95;;;102.40;2227.20;;;;;;5036696;28;20079;-72
2021/04/25 03:53:52;;;;;;;12.98;6.50;;;102.40;2227.20;;;;;;5037358;28;20033;-73
2021/04/25 03:56:18;;;;;;;9.85;5.45;;;102.40;2227.20;;;;;;5037267;28;20075;-72
2021/04/25 03:58:44;;;;;;;12.35;5.95;;;102.40;2227.20;;;;;;5037325;28;20060;-74
2021/04/25 04:01:09;;;;;;;13.52;5.68;;;102.40;2227.20;;;;;;5037546;28;20323;-73
2021/04/25 04:03:35;;;;;;;11.20;6.70;;;102.40;2227.20;;;;;;5037223;28;20100;-72
2021/04/25 04:06:01;;;;;;;12.50;5.40;;;102.40;2227.20;;;;;;5036958;28;20072;-71
2021/04/25 04:08:27;;;;;;;10.85;5.00;;;102.40;2227.20;;;;;;5037483;28;20048;-73
2021/04/25 04:10:53;;;;;;;12.20;4.60;;;102.40;2227.20;;;;;;5036771;28;20057;-73
2021/04/25 04:13:18;;;;;;;15.00;6.70;;;102.50;2227.20;;;;;;5037452;28;20029;-73
2021/04/25 04:15:44;;;;;;;9.63;5.00;;;102.50;2227.20;;;;;;5037139;28;20049;-74
2021/04/25 04:18:10;;;;;;;9.50;5.45;;;102.60;2227.20;;;;;;5036777;28;20034;-71
2021/04/25 04:20:36;;;;;;;12.05;6.05;;;102.70;2227.20;;;;;;5037074;28;20422;-71
2021/04/25 04:23:03;;;;;;;10.98;5.38;;;102.70;2227.20;;;;;;5037053;28;20034;-71
2021/04/25 04:25:29;;;;;;;10.00;6.32;;;102.70;2227.20;;;;;;5037077;28;20021;-71
2021/04/25 04:27:55;;;;;;;8.65;5.47;;;102.80;2227.20;;;;;;5037315;28;20143;-71
2021/04/25 04:30:21;;;;;;;11.45;5.90;;;103.00;2227.20;;;;;;5036759;28;20128;-71
2021/04/25 04:32:47;;;;;;;14.05;6.82;;;102.90;2227.20;;;;;;5036566;28;20025;-71
2021/04/25 04:35:13;;;;;;;16.10;7.25;;;103.00;2227.20;;;;;;5037188;28;20096;-71
2021/04/25 04:37:38;;;;;;;11.95;5.93;;;103.00;2227.20;;;;;;5037155;28;20327;-72
2021/04/25 04:40:05;;;;;;;11.50;5.80;;;103.10;2227.20;;;;;;5036622;28;20053;-73
2021/04/25 04:42:31;;;;;;;9.77;5.47;;;103.20;2227.20;;;;;;5037171;28;20029;-72
2021/04/25 04:44:57;;;;;;;16.95;6.10;;;103.30;2227.20;;;;;;5036899;28;20053;-72
2021/04/25 04:47:23;;;;;;;13.05;5.82;;;103.30;2227.20;;;;;;5036401;28;20138;-73
2021/04/25 04:49:49;;;;;;;12.68;5.93;;;128.00;2252.80;;;;;;5037122;28;20113;-72
2021/04/25 04:52:14;;;;;;;10.25;4.90;;;128.10;2252.80;;;;;;5036835;28;20037;-72
2021/04/25 04:54:41;;;;;;;10.95;5.28;;;128.20;2252.80;;;;;;5037052;28;20381;-71
2021/04/25 04:57:07;;;;;;;9.60;4.82;;;128.30;2252.80;;;;;;5036701;28;20415;-71
2021/04/25 04:59:33;;;;;;;11.52;4.97;;;128.30;2252.80;;;;;;5036452;28;20021;-72
2021/04/25 05:01:59;;;;;;;8.20;4.75;;;128.40;2252.80;;;;;;5037074;28;20079;-72
2021/04/25 05:04:24;;;;;;;10.00;4.85;;;128.50;2252.80;;;;;;5040392;28;20326;-73
2021/04/25 05:06:50;;;;;;;10.18;4.53;;;128.60;2252.80;;;;;;5040428;28;20053;-73
2021/04/25 05:09:16;;;;;;;13.00;5.80;;;128.70;2252.80;;;;;;5040601;28;20480;-71
2021/04/25 05:11:42;;;;;;;9.65;4.85;;;128.80;2252.80;;;;;;5040008;28;20021;-72
2021/04/25 05:14:07;;;;;;;8.50;4.82;;;128.90;2252.80;;;;;;5040258;28;20032;-72
2021/04/25 05:16:33;;;;;;;13.23;6.35;;;153.70;2252.80;;;;;;5040124;28;20041;-73
2021/04/25 05:18:59;;;;;;;9.73;4.82;;;153.80;2252.80;;;;;;5040168;28;20036;-71
2021/04/25 05:21:25;;;;;;;20.45;4.97;;;153.90;2252.80;;;;;;5039855;28;20398;-72
2021/04/25 05:23:51;;;;;;;12.02;5.10;;;154.00;2252.80;;;;;;5040326;28;20323;-73
2021/04/25 05:26:17;;;;;;;11.57;5.25;;;154.20;2252.80;;;;;;5040327;28;20080;-71
2021/04/25 05:28:43;;;;;;;12.70;6.85;;;154.30;2252.80;;;;;;5040039;28;20033;-72
2021/04/25 05:31:08;;;;;;;16.92;8.30;;;154.20;2252.80;;;;;;5039178;28;20448;-71
2021/04/25 05:33:34;;;;;;;11.50;7.25;;;154.30;2252.80;;;;;;5039630;28;20112;-72
2021/04/25 05:36:00;;;;;;;13.85;7.15;;;154.30;2252.80;;;;;;5039888;28;20110;-74
2021/04/25 05:38:27;;;;;;;15.13;7.85;;;154.30;2252.80;;;;;;5039803;28;20060;-73
2021/04/25 05:40:52;;;;;;;14.93;7.20;;;154.40;2252.80;;;;;;5038952;28;20443;-72
2021/04/25 05:43:18;;;;;;;17.88;7.35;;;154.50;2252.80;;;;;;5039718;28;20105;-72
2021/04/25 05:45:44;;;;;;;29.70;13.40;;;179.20;2252.80;;;;;;5039681;28;20044;-72
2021/04/25 05:48:10;;;;;;;39.78;14.35;;;179.30;2252.80;;;;;;5039507;28;20088;-73
2021/04/25 05:50:36;;;;;;;26.88;12.40;;;179.40;2252.80;;;;;;5039617;28;20025;-72
2021/04/25 05:53:02;;;;;;;19.25;8.05;;;179.60;2252.80;;;;;;5039287;28;20029;-71
2021/04/25 05:55:28;;;;;;;18.05;8.07;;;179.70;2252.80;;;;;;5039096;28;20025;-72
2021/04/25 05:57:54;;;;;;;15.98;7.93;;;179.90;2252.80;;;;;;5038401;28;20036;-71
2021/04/25 06:00:23;;;;;;;31.70;22.70;;;180.00;2252.80;;;;;;5038660;28;20025;-72
2021/04/25 06:02:49;;;;;;;17.67;9.00;;;180.10;2252.80;;;;;;5038621;28;20021;-70
2021/04/25 06:05:16;;;;;;;18.27;8.60;;;204.80;2252.80;;;;;;5036078;28;20082;-71
2021/04/25 06:07:42;;;;;;;21.58;11.43;;;205.00;2252.80;;;;;;5038533;28;20076;-70
2021/04/25 06:10:08;;;;;;;43.58;23.58;;;205.00;2252.80;;;;;;5039179;28;20033;-70
2021/04/25 06:12:34;;;;;;;33.75;15.93;;;205.10;2252.80;;;;;;5039380;28;20029;-71
2021/04/25 06:15:00;;;;;;;26.63;11.65;;;205.20;2252.80;;;;;;5038278;28;20108;-71
2021/04/25 06:17:26;;;;;;;18.08;9.90;;;205.30;2252.80;;;;;;5038765;28;20030;-72
2021/04/25 06:19:52;;;;;;;17.70;10.23;;;205.40;2252.80;;;;;;5038655;28;20374;-71
2021/04/25 06:22:19;;;;;;;26.00;10.57;;;205.50;2227.20;;;;;;5038699;28;20025;-72
2021/04/25 06:24:44;;;;;;;22.83;10.18;;;205.60;2201.60;;;;;;5038640;28;20025;-70
2021/04/25 06:27:10;;;;;;;15.60;9.23;;;205.70;2227.20;;;;;;5038315;28;20032;-70
2021/04/25 06:29:36;;;;;;;19.90;13.30;;;230.40;2176.00;;;;;;5038842;28;20025;-72
2021/04/25 06:32:03;;;;;;;19.35;10.80;;;230.50;2176.00;;;;;;5038033;28;20347;-71
2021/04/25 06:34:29;;;;;;;29.50;13.75;;;230.70;2201.60;;;;;;5038984;28;20315;-70
2021/04/25 06:36:55;;;;;;;20.60;10.32;;;230.70;2227.20;;;;;;5038058;28;20034;-70
2021/04/25 06:39:21;;;;;;;18.92;8.30;;;230.80;2176.00;;;;;;5038881;28;20057;-71
2021/04/25 06:41:47;;;;;;;14.38;8.20;;;230.80;2176.00;;;;;;5038590;28;20104;-72
2021/04/25 06:44:12;;;;;;;18.30;7.38;;;231.00;2176.00;;;;;;5038529;28;20078;-73
2021/04/25 06:46:38;;;;;;;23.00;8.10;;;231.00;2124.80;;;;;;5038213;28;20062;-70
2021/04/25 06:49:04;;;;;;;16.05;7.50;;;231.10;2099.20;;;;;;5038151;28;20068;-72
2021/04/25 06:51:30;;;;;;;17.30;8.27;;;231.30;2099.20;;;;;;5037862;28;20100;-71
2021/04/25 06:53:57;;;;;;;25.75;9.02;;;256.10;2150.40;;;;;;5038324;28;20033;-73
2021/04/25 06:56:23;;;;;;;23.70;10.15;;;256.20;2201.60;;;;;;5038529;28;20037;-71
2021/04/25 06:58:49;;;;;;;31.00;9.40;;;256.40;2176.00;;;;;;5037692;28;20036;-72
2021/04/25 07:01:15;;;;;;;17.25;9.43;;;256.50;2124.80;;;;;;5038523;28;20115;-73
2021/04/25 07:03:41;;;;;;;20.67;8.25;;;256.60;2124.80;;;;;;5038178;28;20079;-71
2021/04/25 07:06:06;;;;;;;18.77;9.00;;;256.80;2150.40;;;;;;5038100;28;20030;-71
2021/04/25 07:08:32;;;;;;;21.20;9.30;;;281.60;2124.80;;;;;;5038333;28;20358;-71
2021/04/25 07:10:58;;;;;;;24.40;9.35;;;281.70;2124.80;;;;;;5037995;28;20365;-71
2021/04/25 07:13:24;;;;;;;15.43;9.18;;;281.80;2048.00;;;;;;5037784;28;20076;-70
2021/04/25 07:15:50;;;;;;;15.23;8.43;;;281.90;2124.80;;;;;;5038274;28;20029;-74
2021/04/25 07:18:16;;;;;;;17.85;8.48;;;282.00;2073.60;;;;;;5038161;28;20055;-72
2021/04/25 07:20:42;;;;;;;17.98;8.40;;;282.10;1996.80;;;;;;5037601;28;20116;-72
2021/04/25 07:23:08;;;;;;;15.45;7.88;;;282.10;2048.00;;;;;;5037617;28;20104;-71
2021/04/25 07:25:34;;;;;;;14.80;7.53;;;282.40;2048.00;;;;;;5037784;28;20477;-72
2021/04/25 07:28:00;;;;;;;18.88;8.15;;;282.50;2048.00;;;;;;5037519;28;20061;-73
2021/04/25 07:30:27;;;;;;;15.38;6.85;;;307.20;2022.40;;;;;;5038007;28;20425;-73
2021/04/25 07:32:53;;;;;;;14.73;7.35;;;307.40;1971.20;;;;;;5036989;28;20501;-71
2021/04/25 07:35:20;;;;;;;14.60;6.65;;;307.50;1971.20;;;;;;5019180;28;20026;-71
2021/04/25 07:37:48;;;;;;;16.27;7.60;;;307.60;1945.60;;;;;;5036214;28;20422;-71
2021/04/25 07:40:15;;;;;;;13.87;7.13;;;307.70;1920.00;;;;;;5036585;28;20049;-70
2021/04/25 07:42:41;;;;;;;16.48;9.00;;;307.70;1843.20;;;;;;5036804;28;20018;-71
2021/04/25 07:45:12;;;;;;;23.75;8.70;;;307.80;1817.60;;;;;;5036958;28;20322;-71
2021/04/25 07:47:39;;;;;;;14.80;8.73;;;307.90;1792.00;;;;;;5036413;28;20050;-70
2021/04/25 07:50:07;;;;;;;15.85;8.52;;;308.00;1868.80;;;;;;5036921;28;20024;-71
2021/04/25 07:52:33;;;;;;;14.18;7.88;;;308.10;1766.40;;;;;;5036806;28;20104;-71
2021/04/25 07:54:59;;;;;;;14.05;9.05;;;308.10;1766.40;;;;;;5036615;28;20021;-72
2021/04/25 07:57:25;;;;;;;13.70;6.40;;;332.80;1817.60;;;;;;5036697;28;20030;-72
2021/04/25 07:59:51;;;;;;;12.75;7.07;;;332.90;1715.20;;;;;;5036927;28;20071;-71
2021/04/25 08:02:17;;;;;;;16.10;7.72;;;332.90;1715.20;;;;;;5036590;28;20025;-71
2021/04/25 08:04:43;;;;;;;11.18;6.65;;;333.10;1715.20;;;;;;5036850;28;20330;-72
2021/04/25 08:07:08;;;;;;;14.10;6.63;;;333.10;1664.00;;;;;;5036653;28;20076;-70
2021/04/25 08:09:34;;;;;;;15.63;7.10;;;333.10;1664.00;;;;;;5036616;28;20022;-71
2021/04/25 08:12:00;;;;;;;18.13;7.13;;;333.20;1715.20;;;;;;5036886;28;20106;-71
2021/04/25 08:14:26;;;;;;;14.20;7.22;;;333.20;1664.00;;;;;;5036208;28;20127;-70
2021/04/25 08:16:51;;;;;;;13.13;6.35;;;333.30;1664.00;;;;;;5036494;28;20033;-71
2021/04/25 08:19:17;;;;;;;14.38;7.13;;;333.30;1638.40;;;;;;5037409;28;20029;-70
2021/04/25 08:21:44;;;;;;;16.50;7.20;;;333.50;1664.00;;;;;;5036788;28;20049;-71
2021/04/25 08:24:09;;;;;;;14.85;7.43;;;333.50;1638.40;;;;;;5036702;28;20426;-71
2021/04/25 08:26:35;;;;;;;13.65;6.68;;;333.60;1612.80;;;;;;5037039;28;20036;-70
2021/04/25 08:29:01;;;;;;;13.25;6.72;;;333.60;1664.00;;;;;;5036462;28;20087;-70
2021/04/25 08:31:28;;;;;;;12.15;7.10;;;333.70;1612.80;;;;;;5035895;28;20422;-70
2021/04/25 08:33:53;;;;;;;14.75;7.05;;;358.40;1664.00;;;;;;5035362;28;20025;-71
2021/04/25 08:36:19;;;;;;;15.02;6.97;;;333.70;1587.20;;;;;;5034156;28;20026;-71
2021/04/25 08:38:47;;;;;;;15.95;7.55;;;333.70;1587.20;;;;;;5038456;28;20079;-71
2021/04/25 08:41:15;;;;;;;14.18;7.50;;;358.40;1587.20;;;;;;5039078;28;20026;-74
2021/04/25 08:43:43;;;;;;;15.80;7.72;;;358.50;1587.20;;;;;;5038140;28;20112;-70
2021/04/25 08:46:10;;;;;;;10.45;6.32;;;358.70;1612.80;;;;;;5038632;28;20733;-71
2021/04/25 08:48:36;;;;;;;12.55;7.00;;;358.80;1612.80;;;;;;5039541;28;20025;-71
2021/04/25 08:51:03;;;;;;;13.32;6.63;;;358.80;1638.40;;;;;;5039118;28;20423;-73
2021/04/25 08:53:29;;;;;;;13.73;7.28;;;358.90;1536.00;;;;;;5039266;28;20027;-72
2021/04/25 08:55:55;;;;;;;14.90;7.43;;;358.90;1536.00;;;;;;5038606;28;20431;-72
2021/04/25 08:58:21;;;;;;;12.45;7.07;;;359.00;1536.00;;;;;;5038301;28;20082;-71
2021/04/25 09:00:48;;;;;;;13.07;7.25;;;358.90;1484.80;;;;;;5038740;28;20025;-70
2021/04/25 09:03:15;;;;;;;16.67;7.72;;;359.10;1536.00;;;;;;5039310;28;20171;-71
2021/04/25 09:05:44;;;;;;;20.75;8.68;;;359.20;1484.80;;;;;;5038733;28;20430;-70
2021/04/25 09:08:10;;;;;;;16.88;7.38;;;384.00;1561.60;;;;;;5038888;28;20021;-70
2021/04/25 09:10:42;;;;;;;11.95;6.63;;;384.10;1536.00;;;;;;5039127;28;20037;-72
2021/04/25 09:13:24;;;;;;;14.90;7.35;;;384.00;1408.00;;;;;;5035970;28;20037;-72
2021/04/25 09:15:52;;;;;;;17.13;8.55;;;359.30;1433.60;;;;;;5038614;28;20032;-71
2021/04/25 09:18:34;;;;;;;19.45;6.50;;;384.20;1459.20;;;;;;5038624;28;20029;-71
2021/04/25 09:21:11;;;;;;;16.98;8.93;;;384.20;1408.00;;;;;;5038639;28;20107;-69
2021/04/25 09:23:38;;;;;;;11.95;6.78;;;384.30;1433.60;;;;;;5038431;28;20017;-71
2021/04/25 09:26:05;;;;;;;12.10;6.40;;;384.20;1408.00;;;;;;5039814;28;20025;-70
2021/04/25 09:28:32;;;;;;;12.05;6.72;;;384.30;1459.20;;;;;;5040288;28;20021;-71
2021/04/25 09:31:02;;;;;;;11.10;6.28;;;384.40;1382.40;;;;;;5040231;28;20029;-70
2021/04/25 09:33:47;;;;;;;11.88;6.65;;;384.60;1382.40;;;;;;5039428;28;20028;-69
2021/04/25 09:36:16;;;;;;;15.15;6.55;;;384.70;1484.80;;;;;;5039874;28;20051;-71
2021/04/25 09:38:41;;;;;;;16.27;6.63;;;384.60;1408.00;;;;;;5039530;28;20048;-70
2021/04/25 09:41:07;;;;;;;13.10;6.40;;;384.70;1484.80;;;;;;5039230;28;20422;-71
2021/04/25 09:43:40;;;;;;;11.90;6.55;;;384.80;1408.00;;;;;;5039731;28;20029;-71
2021/04/25 09:46:06;;;;;;;12.52;7.20;;;409.70;1408.00;;;;;;5039545;28;20025;-72
2021/04/25 09:48:35;;;;;;;16.83;6.70;;;409.80;1382.40;;;;;;5030208;28;20466;-70
2021/04/25 09:51:07;;;;;;;16.05;7.15;;;410.10;1408.00;;;;;;5017139;28;20040;-70
2021/04/25 09:53:34;;;;;;;11.70;6.47;;;410.00;1356.80;;;;;;5017512;28;20084;-69
2021/04/25 09:56:00;;;;;;;12.23;6.18;;;410.00;1408.00;;;;;;5017701;28;20092;-70
2021/04/25 09:58:27;;;;;;;9.48;5.50;;;410.00;1408.00;;;;;;5017658;28;20061;-70
2021/04/25 10:00:54;;;;;;;10.65;5.65;;;410.00;1356.80;;;;;;5015765;28;20513;-70
2021/04/25 10:03:22;;;;;;;9.80;5.03;;;410.00;1382.40;;;;;;5017205;28;20044;-73
2021/04/25 10:06:00;;;;;;;14.50;5.47;;;410.10;1305.60;;;;;;5017159;28;20088;-72
2021/04/25 10:08:28;;;;;;;9.38;5.45;;;410.10;1305.60;;;;;;5020555;28;20037;-70
2021/04/25 10:10:54;;;;;;;10.15;6.30;;;410.20;1356.80;;;;;;5032864;28;20048;-70
2021/04/25 10:13:20;;;;;;;9.63;4.32;;;410.40;1331.20;;;;;;5034083;28;20080;-70
2021/04/25 10:15:46;;;;;;;10.40;5.30;;;410.20;1305.60;;;;;;5037701;28;20025;-71
2021/04/25 10:18:12;;;;;;;14.90;5.47;;;410.30;1280.00;;;;;;5037496;28;20047;-70
2021/04/25 10:20:38;;;;;;;9.75;4.78;;;410.30;1280.00;;;;;;5038954;28;20060;-71
2021/04/25 10:23:06;;;;;;;9.60;4.40;;;410.50;1254.40;;;;;;5037907;28;20025;-70
2021/04/25 10:25:35;;;;;;;10.63;5.03;;;435.20;1254.40;;;;;;5038824;28;20024;-72
2021/04/25 10:28:11;;;;;;;8.00;4.80;;;410.50;1228.80;;;;;;5037582;28;20028;-71
2021/04/25 10:30:39;;;;;;;9.27;4.32;;;435.20;1228.80;;;;;;5038530;28;20027;-72
2021/04/25 10:33:06;;;;;;;10.77;4.50;;;435.30;1177.60;;;;;;5037687;28;20053;-71
2021/04/25 10:35:36;;;;;;;9.68;4.00;;;435.50;1203.20;;;;;;5037482;28;20103;-70
2021/04/25 10:38:06;;;;;;;11.48;4.80;;;435.70;1203.20;;;;;;5037589;28;20129;-72
2021/04/25 10:40:39;;;;;;;6.65;4.15;;;435.70;1254.40;;;;;;5036867;28;20117;-71
2021/04/25 10:43:10;;;;;;;9.20;4.00;;;435.80;1228.80;;;;;;5037999;28;20036;-73
2021/04/25 10:45:56;;;;;;;7.68;3.97;;;435.70;1203.20;;;;;;5037947;28;20052;-71
2021/04/25 10:48:27;;;;;;;8.98;4.55;;;435.80;1152.00;;;;;;4999193;28;20066;-72
2021/04/25 10:50:55;;;;;;;7.90;4.43;;;435.90;1203.20;;;;;;4999126;28;20026;-70
2021/04/25 10:53:30;;;;;;;10.27;4.28;;;436.00;1177.60;;;;;;4998955;28;20026;-70
2021/04/25 10:56:14;;;;;;;8.65;4.43;;;436.00;1126.40;;;;;;4999129;28;20026;-71
2021/04/25 10:58:47;;;;;;;9.13;4.78;;;436.10;1126.40;;;;;;4998700;28;20030;-69
2021/04/25 11:01:39;;;;;;;11.20;4.78;;;460.90;1228.80;;;;;;4998182;28;20092;-70
2021/04/25 11:04:08;;;;;;;9.40;4.70;;;461.30;1152.00;;;;;;4997906;28;20430;-72
2021/04/25 11:06:33;;;;;;;;;;;461.60;1203.20;;;;;;4998533;28;20022;-75
2021/04/25 11:08:59;;;;;;;7.03;4.90;;;461.50;1177.60;;;;;;4997163;28;20001;-73
2021/04/25 11:11:37;;;;;;;11.10;3.85;;;461.40;1152.00;;;;;;4998455;28;20057;-74
2021/04/25 11:14:04;;;;;;;8.52;5.00;;;461.50;1100.80;;;;;;4998571;28;20050;-74
2021/04/25 11:16:32;;;;;;;8.52;4.65;;;461.60;1126.40;;;;;;4998020;28;20104;-70
2021/04/25 11:19:06;;;;;;;21.55;9.00;;;461.70;1152.00;;;;;;4998224;28;20033;-70
2021/04/25 11:21:36;;;;;;;9.43;5.40;;;461.70;1152.00;;;;;;4998406;28;20120;-72
2021/04/25 11:24:03;;;;;;;9.30;4.97;;;486.70;1177.60;;;;;;4998550;28;20065;-71
2021/04/25 11:26:38;;;;;;;7.05;5.05;;;487.10;1126.40;;;;;;4997485;28;20351;-71
2021/04/25 11:29:29;;;;;;;13.30;4.93;;;487.00;1126.40;;;;;;4997939;28;20026;-71
2021/04/25 11:32:01;;;;;;;10.57;4.97;;;487.10;1100.80;;;;;;4992663;28;20042;-71
2021/04/25 11:34:30;;;;;;;15.52;5.38;;;487.20;1100.80;;;;;;4997708;28;20033;-72
2021/04/25 11:37:02;;;;;;;8.75;5.32;;;487.00;1049.60;;;;;;4998107;28;20037;-71
2021/04/25 11:39:34;;;;;;;9.30;4.88;;;487.10;1049.60;;;;;;4998236;28;20034;-72
2021/04/25 11:42:02;;;;;;;6.63;4.13;;;512.10;1049.60;;;;;;4997588;28;20064;-72
2021/04/25 11:44:39;;;;;;;8.25;4.43;;;512.20;1049.60;;;;;;4995125;28;20026;-70
2021/04/25 11:47:12;;;;;;;8.43;5.15;;;512.70;1049.60;;;;;;5018355;28;20080;-71
2021/04/25 11:49:49;;;;;;;10.50;4.63;;;512.90;998.40;;;;;;5036949;28;20104;-71
2021/04/25 11:52:15;;;;;;;8.73;4.18;;;512.70;1075.20;;;;;;5035869;28;20116;-71
2021/04/25 11:54:46;;;;;;;7.53;4.47;;;537.60;1049.60;;;;;;5035759;28;20104;-72
2021/04/25 11:57:20;;;;;;;8.25;4.13;;;538.30;1024.00;;;;;;5016748;28;20044;-70
2021/04/25 12:00:08;;;;;;;6.90;4.10;;;563.50;998.40;;;;;;5017457;28;20494;-71
2021/04/25 12:02:45;;;;;;;8.43;5.13;;;564.10;972.80;;;;;;5031293;28;20402;-72
2021/04/25 12:05:15;;;;;;;9.80;5.03;;;691.40;819.20;;;;;;5036659;28;20032;-70
2021/04/25 12:07:52;;;;;;;7.90;5.22;;;768.20;793.60;;;;;;5036564;28;20033;-71
2021/04/25 12:10:36;;;;;;;7.25;4.90;;;793.60;768.00;;;;;;5036419;28;20063;-71